createdAt,value
2019-02-27T00:02:31.757Z,15.06
2019-02-27T00:05:33.551Z,15.06
2019-02-27T00:08:35.407Z,14.94
2019-02-27T00:11:36.851Z,14.94
2019-02-27T00:14:38.307Z,14.87
2019-02-27T00:17:39.892Z,14.81
2019-02-27T00:20:41.331Z,14.81
2019-02-27T00:23:42.831Z,14.75
2019-02-27T00:26:44.217Z,14.69
2019-02-27T00:29:45.643Z,14.63
2019-02-27T00:32:51.026Z,14.56
2019-02-27T00:35:50.938Z,14.50
2019-02-27T00:38:52.402Z,14.50
2019-02-27T00:41:53.911Z,14.44
2019-02-27T00:44:56.049Z,14.38
2019-02-27T00:47:57.549Z,14.31
2019-02-27T00:50:58.977Z,14.25
2019-02-27T00:54:00.400Z,14.25
2019-02-27T00:57:01.877Z,14.19
2019-02-27T01:00:06.275Z,14.19
2019-02-27T01:03:07.128Z,14.13
2019-02-27T01:06:08.977Z,14.06
2019-02-27T01:09:10.939Z,14.00
2019-02-27T01:12:13.731Z,14.00
2019-02-27T01:15:15.599Z,13.94
2019-02-27T01:18:17.008Z,13.88
2019-02-27T01:21:19.945Z,13.88
2019-02-27T01:24:21.482Z,13.81
2019-02-27T01:27:23.928Z,13.75
2019-02-27T01:30:25.393Z,13.69
2019-02-27T01:33:26.787Z,13.69
2019-02-27T01:36:28.181Z,13.62
2019-02-27T01:39:29.608Z,13.62
2019-02-27T01:42:32.854Z,13.56
2019-02-27T01:45:34.359Z,13.50
2019-02-27T01:48:35.865Z,13.50
2019-02-27T01:51:38.680Z,13.44
2019-02-27T01:54:40.467Z,13.38
2019-02-27T01:57:41.862Z,13.31
2019-02-27T02:00:43.335Z,13.31
2019-02-27T02:03:47.265Z,13.25
2019-02-27T02:06:48.033Z,13.25
2019-02-27T02:09:55.049Z,13.19
2019-02-27T02:13:15.169Z,13.13
2019-02-27T02:17:11.276Z,13.06
2019-02-27T02:21:01.817Z,13.06
2019-02-27T02:24:47.071Z,13.00
2019-02-27T02:28:40.991Z,12.94
2019-02-27T02:32:18.272Z,12.88
2019-02-27T02:36:11.221Z,12.81
2019-02-27T02:40:30.814Z,12.81
2019-02-27T02:44:34.484Z,12.75
2019-02-27T02:48:50.704Z,12.69
2019-02-27T02:52:31.613Z,12.63
2019-02-27T02:56:51.703Z,12.56
2019-02-27T03:00:47.909Z,12.50
2019-02-27T03:05:23.333Z,12.44
2019-02-27T03:09:22.074Z,12.37
2019-02-27T03:13:25.478Z,12.37
2019-02-27T03:17:18.426Z,12.31
2019-02-27T03:20:45.420Z,12.25
2019-02-27T03:24:36.300Z,12.19
2019-02-27T03:28:40.668Z,12.13
2019-02-27T03:32:06.897Z,12.13
2019-02-27T03:35:56.397Z,12.06
2019-02-27T03:39:34.334Z,12.00
2019-02-27T03:43:29.804Z,12.00
2019-02-27T03:47:52.965Z,11.94
2019-02-27T03:51:46.705Z,11.88
2019-02-27T03:55:32.845Z,11.81
2019-02-27T03:59:42.146Z,11.75
2019-02-27T04:03:33.953Z,11.75
2019-02-27T04:07:35.661Z,11.69
2019-02-27T04:10:37.053Z,11.63
2019-02-27T04:13:38.425Z,11.63
2019-02-27T04:16:39.877Z,11.56
2019-02-27T04:19:41.318Z,11.50
2019-02-27T04:22:42.705Z,11.50
2019-02-27T04:25:44.115Z,11.44
2019-02-27T04:28:45.450Z,11.44
2019-02-27T04:31:46.980Z,11.38
2019-02-27T04:34:48.720Z,11.38
2019-02-27T04:37:54.119Z,11.31
2019-02-27T04:40:53.860Z,11.31
2019-02-27T04:43:55.306Z,11.25
2019-02-27T04:46:56.683Z,11.19
2019-02-27T04:49:58.134Z,11.19
2019-02-27T04:52:59.586Z,11.12
2019-02-27T04:56:00.974Z,11.12
2019-02-27T04:59:02.339Z,11.06
2019-02-27T05:02:04.502Z,11.06
2019-02-27T05:05:08.598Z,11.06
2019-02-27T05:08:10.206Z,11.00
2019-02-27T05:11:13.943Z,10.94
2019-02-27T05:14:15.326Z,10.94
2019-02-27T05:17:21.193Z,10.88
2019-02-27T05:20:19.806Z,10.81
2019-02-27T05:23:21.270Z,10.81
2019-02-27T05:26:27.092Z,10.81
2019-02-27T05:29:26.069Z,10.75
2019-02-27T05:32:28.258Z,10.75
2019-02-27T05:35:30.766Z,10.69
2019-02-27T05:38:32.163Z,10.63
2019-02-27T05:41:33.774Z,10.63
2019-02-27T05:44:35.150Z,10.56
2019-02-27T05:47:36.683Z,10.56
2019-02-27T05:50:38.160Z,10.56
2019-02-27T05:53:39.501Z,10.50
2019-02-27T05:56:40.866Z,10.50
2019-02-27T05:59:42.300Z,10.44
2019-02-27T06:02:45.008Z,10.44
2019-02-27T06:05:49.634Z,10.38
2019-02-27T06:08:50.227Z,10.38
2019-02-27T06:11:51.586Z,10.31
2019-02-27T06:14:54.992Z,10.31
2019-02-27T06:17:56.704Z,10.31
2019-02-27T06:20:58.943Z,10.31
2019-02-27T06:24:00.510Z,10.31
2019-02-27T06:27:06.097Z,10.31
2019-02-27T06:30:05.946Z,10.25
2019-02-27T06:33:11.590Z,10.25
2019-02-27T06:36:11.516Z,10.25
2019-02-27T06:39:13.026Z,10.25
2019-02-27T06:42:14.535Z,10.25
2019-02-27T06:45:18.341Z,10.25
2019-02-27T06:48:19.738Z,10.25
2019-02-27T06:51:21.600Z,10.25
2019-02-27T06:54:22.957Z,10.25
2019-02-27T06:57:24.451Z,10.25
2019-02-27T07:00:25.946Z,10.31
2019-02-27T07:03:29.559Z,10.38
2019-02-27T07:06:30.587Z,10.44
2019-02-27T07:09:32.016Z,10.56
2019-02-27T07:12:33.401Z,10.69
2019-02-27T07:15:34.824Z,10.81
2019-02-27T07:18:36.533Z,10.94
2019-02-27T07:21:38.074Z,11.00
2019-02-27T07:24:39.863Z,11.06
2019-02-27T07:27:41.328Z,11.12
2019-02-27T07:30:43.277Z,11.12
2019-02-27T07:33:45.127Z,11.12
2019-02-27T07:36:46.588Z,11.12
2019-02-27T07:39:48.011Z,11.19
2019-02-27T07:42:49.394Z,11.25
2019-02-27T07:45:50.829Z,11.38
2019-02-27T07:48:56.451Z,11.44
2019-02-27T07:51:57.916Z,11.56
2019-02-27T07:54:58.884Z,11.63
2019-02-27T07:58:00.380Z,11.75
2019-02-27T08:01:01.919Z,11.88
2019-02-27T08:04:04.434Z,12.00
2019-02-27T08:07:05.842Z,12.19
2019-02-27T08:10:10.770Z,12.31
2019-02-27T08:13:12.158Z,12.50
2019-02-27T08:16:13.566Z,12.69
2019-02-27T08:19:15.136Z,12.88
2019-02-27T08:22:16.635Z,13.06
2019-02-27T08:25:18.115Z,13.19
2019-02-27T08:28:19.619Z,13.38
2019-02-27T08:31:21.068Z,13.56
2019-02-27T08:34:22.471Z,13.69
2019-02-27T08:37:23.986Z,13.81
2019-02-27T08:40:25.419Z,14.44
2019-02-27T08:43:26.853Z,14.31
2019-02-27T08:46:28.341Z,14.25
2019-02-27T08:49:31.808Z,14.25
2019-02-27T08:52:33.553Z,14.31
2019-02-27T08:55:39.057Z,14.38
2019-02-27T08:58:41.182Z,14.56
2019-02-27T09:01:43.927Z,14.63
2019-02-27T09:04:47.055Z,14.81
2019-02-27T09:07:50.446Z,14.94
2019-02-27T09:10:53.488Z,15.06
2019-02-27T09:14:01.959Z,15.19
2019-02-27T09:17:00.528Z,15.38
2019-02-27T09:20:02.225Z,15.44
2019-02-27T09:23:04.250Z,15.69
2019-02-27T09:26:05.756Z,15.75
2019-02-27T09:29:07.118Z,15.81
2019-02-27T09:32:11.402Z,16.00
2019-02-27T09:35:13.046Z,16.12
2019-02-27T09:38:14.696Z,16.25
2019-02-27T09:41:16.563Z,16.37
2019-02-27T09:44:18.348Z,16.50
2019-02-27T09:47:20.068Z,16.62
2019-02-27T09:50:34.879Z,16.75
2019-02-27T09:53:37.440Z,16.87
2019-02-27T09:56:39.170Z,17.06
2019-02-27T09:59:40.751Z,17.19
2019-02-27T10:02:43.192Z,17.25
2019-02-27T10:05:45.475Z,17.31
2019-02-27T10:08:46.995Z,17.56
2019-02-27T10:11:48.518Z,17.75
2019-02-27T10:14:50.274Z,17.94
2019-02-27T10:17:52.805Z,18.12
2019-02-27T10:20:54.292Z,18.31
2019-02-27T10:23:55.727Z,18.50
2019-02-27T10:26:57.159Z,18.62
2019-02-27T10:29:58.774Z,18.81
2019-02-27T10:33:00.233Z,19.00
2019-02-27T10:36:03.647Z,19.19
2019-02-27T10:39:06.588Z,19.44
2019-02-27T10:42:10.118Z,19.69
2019-02-27T10:45:14.903Z,19.87
2019-02-27T10:48:16.855Z,20.12
2019-02-27T10:51:18.515Z,20.37
2019-02-27T10:54:20.073Z,20.56
2019-02-27T10:57:23.205Z,20.81
2019-02-27T11:00:29.809Z,20.94
2019-02-27T11:03:31.628Z,21.25
2019-02-27T11:06:34.244Z,21.62
2019-02-27T11:09:41.207Z,22.06
2019-02-27T11:12:41.902Z,22.31
2019-02-27T11:15:44.817Z,22.62
2019-02-27T11:18:46.964Z,22.25
2019-02-27T11:21:49.641Z,21.69
2019-02-27T11:24:52.500Z,21.94
2019-02-27T11:27:55.892Z,21.94
2019-02-27T11:30:59.619Z,22.00
2019-02-27T11:34:01.246Z,22.00
2019-02-27T11:37:04.408Z,22.19
2019-02-27T11:40:07.887Z,22.25
2019-02-27T11:43:09.907Z,23.00
2019-02-27T11:46:11.860Z,24.06
2019-02-27T11:49:13.531Z,24.87
2019-02-27T11:52:15.010Z,25.44
2019-02-27T11:55:17.398Z,25.88
2019-02-27T11:58:19.475Z,25.94
2019-02-27T12:01:22.740Z,26.50
2019-02-27T12:04:24.342Z,26.94
2019-02-27T12:07:25.951Z,27.00
2019-02-27T12:10:30.702Z,27.31
2019-02-27T12:13:32.366Z,27.44
2019-02-27T12:16:35.532Z,27.69
2019-02-27T12:19:37.151Z,27.69
2019-02-27T12:22:38.731Z,28.12
2019-02-27T12:25:40.309Z,28.19
2019-02-27T12:28:42.050Z,28.25
2019-02-27T12:31:48.177Z,28.00
2019-02-27T12:34:48.352Z,28.50
2019-02-27T12:37:50.217Z,28.75
2019-02-27T12:40:52.903Z,29.31
2019-02-27T12:43:54.433Z,29.50
2019-02-27T12:46:56.147Z,28.50
2019-02-27T12:49:57.900Z,26.44
2019-02-27T12:53:01.332Z,26.56
2019-02-27T12:56:07.812Z,27.13
2019-02-27T12:59:08.985Z,26.94
2019-02-27T13:02:10.927Z,27.62
2019-02-27T13:05:14.200Z,27.31
2019-02-27T13:08:16.312Z,27.37
2019-02-27T13:11:22.825Z,27.00
2019-02-27T13:14:24.420Z,26.75
2019-02-27T13:17:26.206Z,27.69
2019-02-27T13:20:28.518Z,25.37
2019-02-27T13:23:30.048Z,27.06
2019-02-27T13:26:34.752Z,27.31
2019-02-27T13:29:35.251Z,27.13
2019-02-27T13:32:38.516Z,26.25
2019-02-27T13:35:40.329Z,24.06
2019-02-27T13:38:41.946Z,23.56
2019-02-27T13:41:45.543Z,24.94
2019-02-27T13:44:46.687Z,25.56
2019-02-27T13:47:48.260Z,24.56
2019-02-27T13:50:49.861Z,23.06
2019-02-27T13:53:51.372Z,24.75
2019-02-27T13:56:53.254Z,24.37
2019-02-27T13:59:55.829Z,24.75
2019-02-27T14:02:57.415Z,25.75
2019-02-27T14:05:59.008Z,25.37
2019-02-27T14:09:00.666Z,25.56
2019-02-27T14:12:03.861Z,25.31
2019-02-27T14:15:06.490Z,24.56
2019-02-27T14:18:08.983Z,24.19
2019-02-27T14:21:10.695Z,24.50
2019-02-27T14:24:12.251Z,25.50
2019-02-27T14:27:14.590Z,25.25
2019-02-27T14:30:24.481Z,28.25
2019-02-27T14:33:26.088Z,29.12
2019-02-27T14:36:27.580Z,30.19
2019-02-27T14:39:29.643Z,28.50
2019-02-27T14:42:33.525Z,27.44
2019-02-27T14:45:39.732Z,27.44
2019-02-27T14:48:39.150Z,29.06
2019-02-27T14:51:41.707Z,29.06
2019-02-27T14:54:43.366Z,27.25
2019-02-27T14:57:49.919Z,28.75
2019-02-27T15:00:48.446Z,27.19
2019-02-27T15:03:50.112Z,28.44
2019-02-27T15:06:51.885Z,28.69
2019-02-27T15:09:53.425Z,28.94
2019-02-27T15:12:55.663Z,27.25
2019-02-27T15:15:57.420Z,27.37
2019-02-27T15:18:59.705Z,26.56
2019-02-27T15:22:01.442Z,27.44
2019-02-27T15:25:07.917Z,28.44
2019-02-27T15:28:07.016Z,28.12
2019-02-27T15:31:09.145Z,27.94
2019-02-27T15:34:13.672Z,28.00
2019-02-27T15:37:15.602Z,27.81
2019-02-27T15:40:20.032Z,27.87
2019-02-27T15:43:21.887Z,27.44
2019-02-27T15:46:25.045Z,26.94
2019-02-27T15:49:26.624Z,26.37
2019-02-27T15:52:28.179Z,26.69
2019-02-27T15:55:34.180Z,27.13
2019-02-27T15:58:35.880Z,27.13
2019-02-27T16:01:38.504Z,25.88
2019-02-27T16:04:41.083Z,24.44
2019-02-27T16:07:48.474Z,24.69
2019-02-27T16:10:54.581Z,25.88
2019-02-27T16:13:52.184Z,26.44
2019-02-27T16:16:54.204Z,25.44
2019-02-27T16:19:57.244Z,26.25
2019-02-27T16:23:04.256Z,25.44
2019-02-27T16:26:03.730Z,25.12
2019-02-27T16:29:05.412Z,24.50
2019-02-27T16:32:07.016Z,25.44
2019-02-27T16:35:09.171Z,24.50
2019-02-27T16:38:13.043Z,24.19
2019-02-27T16:41:16.279Z,23.69
2019-02-27T16:44:21.672Z,24.06
2019-02-27T16:47:23.586Z,23.87
2019-02-27T16:50:27.369Z,23.44
2019-02-27T16:53:28.252Z,22.75
2019-02-27T16:56:29.739Z,22.50
2019-02-27T16:59:31.287Z,23.19
2019-02-27T17:02:35.477Z,23.69
2019-02-27T17:05:36.920Z,23.81
2019-02-27T17:08:38.828Z,23.75
2019-02-27T17:11:40.735Z,23.62
2019-02-27T17:14:43.286Z,23.69
2019-02-27T17:17:45.149Z,23.62
2019-02-27T17:20:47.359Z,23.56
2019-02-27T17:23:48.967Z,23.44
2019-02-27T17:26:50.472Z,23.38
2019-02-27T17:29:52.015Z,23.31
2019-02-27T17:32:54.593Z,23.19
2019-02-27T17:35:59.244Z,23.06
2019-02-27T17:38:59.905Z,22.94
2019-02-27T17:42:01.443Z,22.81
2019-02-27T17:45:02.955Z,22.75
2019-02-27T17:48:05.046Z,22.62
2019-02-27T17:51:06.742Z,22.56
2019-02-27T17:54:08.194Z,22.44
2019-02-27T17:57:09.706Z,22.37
2019-02-27T18:00:21.714Z,22.31
2019-02-27T18:03:24.965Z,22.25
2019-02-27T18:06:26.545Z,22.19
2019-02-27T18:09:28.106Z,22.13
2019-02-27T18:12:30.081Z,22.00
2019-02-27T18:15:31.666Z,21.94
2019-02-27T18:18:33.271Z,21.87
2019-02-27T18:21:35.099Z,21.81
2019-02-27T18:24:36.694Z,21.69
2019-02-27T18:27:38.254Z,21.62
2019-02-27T18:30:39.906Z,21.56
2019-02-27T18:33:41.936Z,21.50
2019-02-27T18:36:46.366Z,21.37
2019-02-27T18:39:59.960Z,21.31
2019-02-27T18:43:03.597Z,21.25
2019-02-27T18:46:06.091Z,21.19
2019-02-27T18:49:07.767Z,21.12
2019-02-27T18:52:09.522Z,21.06
2019-02-27T18:55:13.781Z,21.00
2019-02-27T18:58:18.243Z,20.94
2019-02-27T19:01:19.324Z,20.88
2019-02-27T19:04:21.117Z,20.81
2019-02-27T19:07:22.794Z,20.75
2019-02-27T19:10:24.969Z,20.62
2019-02-27T19:13:26.609Z,20.56
2019-02-27T19:16:28.380Z,20.50
2019-02-27T19:19:31.525Z,20.44
2019-02-27T19:22:33.577Z,20.37
2019-02-27T19:25:37.292Z,20.31
2019-02-27T19:28:38.470Z,20.25
2019-02-27T19:31:40.170Z,20.19
2019-02-27T19:34:44.451Z,20.12
2019-02-27T19:37:45.544Z,20.12
2019-02-27T19:40:47.207Z,20.06
2019-02-27T19:43:48.817Z,19.94
2019-02-27T19:46:50.685Z,19.94
2019-02-27T19:49:52.415Z,19.87
2019-02-27T19:52:54.537Z,19.81
2019-02-27T19:56:00.672Z,19.75
2019-02-27T19:58:59.740Z,19.69
2019-02-27T20:02:01.914Z,19.62
2019-02-27T20:05:03.888Z,19.62
2019-02-27T20:08:09.818Z,19.56
2019-02-27T20:11:09.704Z,19.50
2019-02-27T20:14:11.347Z,19.50
2019-02-27T20:17:13.092Z,19.44
2019-02-27T20:20:15.812Z,19.37
2019-02-27T20:23:17.510Z,19.37
2019-02-27T20:26:21.030Z,19.31
2019-02-27T20:29:23.057Z,19.25
2019-02-27T20:32:28.379Z,19.12
2019-02-27T20:35:28.870Z,19.06
2019-02-27T20:42:03.985Z,18.94
2019-02-27T20:45:08.640Z,18.87
2019-02-27T20:48:10.089Z,18.81
2019-02-27T20:51:11.946Z,18.75
2019-02-27T20:54:13.613Z,18.69
2019-02-27T20:57:15.258Z,18.62
2019-02-27T21:00:17.613Z,18.56
2019-02-27T21:03:19.238Z,18.50
2019-02-27T21:06:21.118Z,18.44
2019-02-27T21:09:22.733Z,18.37
2019-02-27T21:12:24.342Z,18.31
2019-02-27T21:15:29.337Z,18.25
2019-02-27T21:18:32.594Z,18.19
2019-02-27T21:21:33.391Z,18.12
2019-02-27T21:24:37.309Z,18.12
2019-02-27T21:27:38.142Z,18.00
2019-02-27T21:30:39.722Z,18.00
2019-02-27T21:33:42.376Z,17.94
2019-02-27T21:36:44.878Z,17.87
2019-02-27T21:39:46.357Z,17.81
2019-02-27T21:42:50.882Z,17.75
2019-02-27T21:45:51.063Z,17.69
2019-02-27T21:48:52.567Z,17.62
2019-02-27T21:51:54.197Z,17.62
2019-02-27T21:54:55.762Z,17.56
2019-02-27T21:57:58.151Z,17.50
2019-02-27T22:01:00.423Z,17.44
2019-02-27T22:04:01.967Z,17.37
2019-02-27T22:07:05.037Z,17.31
2019-02-27T22:10:09.160Z,17.25
2019-02-27T22:13:10.936Z,17.19
2019-02-27T22:16:12.429Z,17.19
2019-02-27T22:19:13.899Z,17.12
2019-02-27T22:22:15.349Z,17.06
2019-02-27T22:25:17.232Z,17.00
2019-02-27T22:28:20.026Z,17.00
2019-02-27T22:31:22.144Z,16.94
2019-02-27T22:34:23.638Z,16.87
2019-02-27T22:37:25.122Z,16.81
2019-02-27T22:40:28.113Z,16.81
2019-02-27T22:43:29.596Z,16.75
2019-02-27T22:46:31.253Z,16.69
2019-02-27T22:49:32.899Z,16.62
2019-02-27T22:52:34.333Z,16.62
2019-02-27T22:55:36.418Z,16.56
2019-02-27T22:58:37.957Z,16.50
2019-02-27T23:01:50.433Z,16.50
2019-02-27T23:04:51.062Z,16.44
2019-02-27T23:07:52.917Z,16.37
2019-02-27T23:10:54.393Z,16.37
2019-02-27T23:13:55.845Z,16.31
2019-02-27T23:17:00.636Z,16.25
2019-02-27T23:20:00.551Z,16.25
2019-02-27T23:23:03.313Z,16.19
2019-02-27T23:26:04.946Z,16.12
2019-02-27T23:29:06.542Z,16.12
2019-02-27T23:32:07.975Z,16.06
2019-02-27T23:35:09.563Z,16.06
2019-02-27T23:38:11.370Z,16.00
2019-02-27T23:41:13.159Z,16.00
2019-02-27T23:44:14.562Z,15.94
2019-02-27T23:47:15.995Z,15.88
2019-02-27T23:50:17.409Z,15.88
2019-02-27T23:53:18.826Z,15.81
2019-02-27T23:56:21.211Z,15.81
2019-02-27T23:59:22.596Z,15.75
